sensor_id;sensor_type;location;lat;lon;timestamp;temperature;humidity
69503;SHT31;56704;54.242;12.442;2022-09-09T00:01:00;13.37;94.32
69503;SHT31;56704;54.242;12.442;2022-09-09T00:03:34;13.37;94.30
69503;SHT31;56704;54.242;12.442;2022-09-09T00:06:08;13.38;94.32
69503;SHT31;56704;54.242;12.442;2022-09-09T00:08:44;13.37;94.28
69503;SHT31;56704;54.242;12.442;2022-09-09T00:11:20;13.41;94.30
69503;SHT31;56704;54.242;12.442;2022-09-09T00:13:52;13.42;94.30
69503;SHT31;56704;54.242;12.442;2022-09-09T00:16:22;13.45;94.32
69503;SHT31;56704;54.242;12.442;2022-09-09T00:18:56;13.47;94.33
69503;SHT31;56704;54.242;12.442;2022-09-09T00:21:27;13.48;94.31
69503;SHT31;56704;54.242;12.442;2022-09-09T00:23:57;13.52;94.38
69503;SHT31;56704;54.242;12.442;2022-09-09T00:26:30;13.52;94.34
69503;SHT31;56704;54.242;12.442;2022-09-09T00:29:05;13.54;94.37
69503;SHT31;56704;54.242;12.442;2022-09-09T00:31:36;13.52;94.39
69503;SHT31;56704;54.242;12.442;2022-09-09T00:34:08;13.54;94.37
69503;SHT31;56704;54.242;12.442;2022-09-09T00:36:37;13.57;94.38
69503;SHT31;56704;54.242;12.442;2022-09-09T00:39:04;13.55;94.35
69503;SHT31;56704;54.242;12.442;2022-09-09T00:41:41;13.58;94.38
69503;SHT31;56704;54.242;12.442;2022-09-09T00:44:23;13.57;94.36
69503;SHT31;56704;54.242;12.442;2022-09-09T00:46:58;13.61;94.36
69503;SHT31;56704;54.242;12.442;2022-09-09T00:49:35;13.61;94.31
69503;SHT31;56704;54.242;12.442;2022-09-09T00:52:17;13.59;94.34
69503;SHT31;56704;54.242;12.442;2022-09-09T00:54:53;13.62;94.34
69503;SHT31;56704;54.242;12.442;2022-09-09T00:57:26;13.63;94.33
69503;SHT31;56704;54.242;12.442;2022-09-09T01:02:35;13.65;94.32
69503;SHT31;56704;54.242;12.442;2022-09-09T01:05:12;13.69;94.29
69503;SHT31;56704;54.242;12.442;2022-09-09T01:07:40;13.68;94.29
69503;SHT31;56704;54.242;12.442;2022-09-09T01:10:17;13.68;94.34
69503;SHT31;56704;54.242;12.442;2022-09-09T01:12:48;13.70;94.29
69503;SHT31;56704;54.242;12.442;2022-09-09T01:15:22;13.69;94.25
69503;SHT31;56704;54.242;12.442;2022-09-09T01:17:55;13.72;94.22
69503;SHT31;56704;54.242;12.442;2022-09-09T01:20:26;13.72;94.19
69503;SHT31;56704;54.242;12.442;2022-09-09T01:23:06;13.72;94.16
69503;SHT31;56704;54.242;12.442;2022-09-09T01:26:10;13.70;94.18
69503;SHT31;56704;54.242;12.442;2022-09-09T01:28:40;13.72;94.18
69503;SHT31;56704;54.242;12.442;2022-09-09T01:31:11;13.76;94.18
69503;SHT31;56704;54.242;12.442;2022-09-09T01:33:40;13.76;94.13
69503;SHT31;56704;54.242;12.442;2022-09-09T01:36:13;13.75;94.15
69503;SHT31;56704;54.242;12.442;2022-09-09T01:38:41;13.75;94.18
69503;SHT31;56704;54.242;12.442;2022-09-09T01:41:09;13.75;94.18
69503;SHT31;56704;54.242;12.442;2022-09-09T01:43:35;13.73;94.18
69503;SHT31;56704;54.242;12.442;2022-09-09T01:46:02;13.75;94.20
69503;SHT31;56704;54.242;12.442;2022-09-09T01:48:29;13.73;94.19
69503;SHT31;56704;54.242;12.442;2022-09-09T01:50:56;13.73;94.19
69503;SHT31;56704;54.242;12.442;2022-09-09T01:53:23;13.75;94.16
69503;SHT31;56704;54.242;12.442;2022-09-09T01:55:58;13.73;94.18
69503;SHT31;56704;54.242;12.442;2022-09-09T01:58:34;13.75;94.17
69503;SHT31;56704;54.242;12.442;2022-09-09T02:01:09;13.75;94.18
69503;SHT31;56704;54.242;12.442;2022-09-09T02:03:38;13.73;94.13
69503;SHT31;56704;54.242;12.442;2022-09-09T02:06:14;13.75;94.13
69503;SHT31;56704;54.242;12.442;2022-09-09T02:08:47;13.75;94.12
69503;SHT31;56704;54.242;12.442;2022-09-09T02:11:22;13.76;94.14
69503;SHT31;56704;54.242;12.442;2022-09-09T02:13:53;13.75;94.11
69503;SHT31;56704;54.242;12.442;2022-09-09T02:16:24;13.75;94.11
69503;SHT31;56704;54.242;12.442;2022-09-09T02:18:56;13.76;94.10
69503;SHT31;56704;54.242;12.442;2022-09-09T02:21:25;13.75;94.08
69503;SHT31;56704;54.242;12.442;2022-09-09T02:23:55;13.76;94.09
69503;SHT31;56704;54.242;12.442;2022-09-09T02:26:23;13.73;94.02
69503;SHT31;56704;54.242;12.442;2022-09-09T02:28:55;13.73;94.01
69503;SHT31;56704;54.242;12.442;2022-09-09T02:31:24;13.72;93.94
69503;SHT31;56704;54.242;12.442;2022-09-09T02:33:54;13.75;93.93
69503;SHT31;56704;54.242;12.442;2022-09-09T02:36:23;13.73;93.90
69503;SHT31;56704;54.242;12.442;2022-09-09T02:38:51;13.73;93.91
69503;SHT31;56704;54.242;12.442;2022-09-09T02:41:20;13.73;93.91
69503;SHT31;56704;54.242;12.442;2022-09-09T02:43:49;13.73;93.92
69503;SHT31;56704;54.242;12.442;2022-09-09T02:46:27;13.73;93.97
69503;SHT31;56704;54.242;12.442;2022-09-09T02:49:00;13.73;93.96
69503;SHT31;56704;54.242;12.442;2022-09-09T02:51:33;13.70;93.97
69503;SHT31;56704;54.242;12.442;2022-09-09T02:54:09;13.72;94.00
69503;SHT31;56704;54.242;12.442;2022-09-09T02:56:40;13.70;93.93
69503;SHT31;56704;54.242;12.442;2022-09-09T02:59:08;13.70;93.84
69503;SHT31;56704;54.242;12.442;2022-09-09T03:01:36;13.68;93.84
69503;SHT31;56704;54.242;12.442;2022-09-09T03:04:05;13.69;93.83
69503;SHT31;56704;54.242;12.442;2022-09-09T03:06:31;13.68;93.74
69503;SHT31;56704;54.242;12.442;2022-09-09T03:08:58;13.69;93.78
69503;SHT31;56704;54.242;12.442;2022-09-09T03:11:27;13.68;93.77
69503;SHT31;56704;54.242;12.442;2022-09-09T03:13:54;13.69;93.80
69503;SHT31;56704;54.242;12.442;2022-09-09T03:16:22;13.70;93.84
69503;SHT31;56704;54.242;12.442;2022-09-09T03:18:50;13.68;93.84
69503;SHT31;56704;54.242;12.442;2022-09-09T03:21:16;13.69;93.88
69503;SHT31;56704;54.242;12.442;2022-09-09T03:23:43;13.68;93.89
69503;SHT31;56704;54.242;12.442;2022-09-09T03:26:10;13.68;93.91
69503;SHT31;56704;54.242;12.442;2022-09-09T03:28:37;13.69;93.88
69503;SHT31;56704;54.242;12.442;2022-09-09T03:31:05;13.68;93.87
69503;SHT31;56704;54.242;12.442;2022-09-09T03:33:31;13.70;93.83
69503;SHT31;56704;54.242;12.442;2022-09-09T03:36:03;13.69;93.86
69503;SHT31;56704;54.242;12.442;2022-09-09T03:38:29;13.68;93.87
69503;SHT31;56704;54.242;12.442;2022-09-09T03:40:56;13.69;93.83
69503;SHT31;56704;54.242;12.442;2022-09-09T03:43:25;13.69;93.72
69503;SHT31;56704;54.242;12.442;2022-09-09T03:45:52;13.69;93.71
69503;SHT31;56704;54.242;12.442;2022-09-09T03:48:19;13.70;93.68
69503;SHT31;56704;54.242;12.442;2022-09-09T03:50:46;13.72;93.78
69503;SHT31;56704;54.242;12.442;2022-09-09T03:53:15;13.72;93.68
69503;SHT31;56704;54.242;12.442;2022-09-09T03:55:43;13.70;93.66
69503;SHT31;56704;54.242;12.442;2022-09-09T03:58:11;13.72;93.69
69503;SHT31;56704;54.242;12.442;2022-09-09T04:00:38;13.73;93.74
69503;SHT31;56704;54.242;12.442;2022-09-09T04:03:07;13.76;93.77
69503;SHT31;56704;54.242;12.442;2022-09-09T04:05:34;13.75;93.74
69503;SHT31;56704;54.242;12.442;2022-09-09T04:08:05;13.76;93.71
69503;SHT31;56704;54.242;12.442;2022-09-09T04:10:32;13.78;93.71
69503;SHT31;56704;54.242;12.442;2022-09-09T04:13:02;13.76;93.69
69503;SHT31;56704;54.242;12.442;2022-09-09T04:15:29;13.75;93.73
69503;SHT31;56704;54.242;12.442;2022-09-09T04:17:55;13.78;93.69
69503;SHT31;56704;54.242;12.442;2022-09-09T04:20:22;13.76;93.71
69503;SHT31;56704;54.242;12.442;2022-09-09T04:22:48;13.76;93.74
69503;SHT31;56704;54.242;12.442;2022-09-09T04:25:15;13.79;93.78
69503;SHT31;56704;54.242;12.442;2022-09-09T04:27:43;13.80;93.74
69503;SHT31;56704;54.242;12.442;2022-09-09T04:30:10;13.79;93.75
69503;SHT31;56704;54.242;12.442;2022-09-09T04:32:37;13.82;93.74
69503;SHT31;56704;54.242;12.442;2022-09-09T04:35:04;13.83;93.75
69503;SHT31;56704;54.242;12.442;2022-09-09T04:37:30;13.82;93.73
69503;SHT31;56704;54.242;12.442;2022-09-09T04:39:57;13.85;93.64
69503;SHT31;56704;54.242;12.442;2022-09-09T04:42:27;13.83;93.60
69503;SHT31;56704;54.242;12.442;2022-09-09T04:44:55;13.83;93.55
69503;SHT31;56704;54.242;12.442;2022-09-09T04:47:22;13.83;93.62
69503;SHT31;56704;54.242;12.442;2022-09-09T04:49:48;13.86;93.62
69503;SHT31;56704;54.242;12.442;2022-09-09T04:52:15;13.85;93.64
69503;SHT31;56704;54.242;12.442;2022-09-09T04:54:42;13.82;93.61
69503;SHT31;56704;54.242;12.442;2022-09-09T04:57:10;13.85;93.54
69503;SHT31;56704;54.242;12.442;2022-09-09T04:59:37;13.90;93.52
69503;SHT31;56704;54.242;12.442;2022-09-09T05:02:07;13.89;93.48
69503;SHT31;56704;54.242;12.442;2022-09-09T05:04:34;13.90;93.56
69503;SHT31;56704;54.242;12.442;2022-09-09T05:07:04;13.90;93.54
69503;SHT31;56704;54.242;12.442;2022-09-09T05:09:39;13.93;93.56
69503;SHT31;56704;54.242;12.442;2022-09-09T05:12:38;13.90;93.51
69503;SHT31;56704;54.242;12.442;2022-09-09T05:15:31;13.93;93.55
69503;SHT31;56704;54.242;12.442;2022-09-09T05:17:59;13.96;93.58
69503;SHT31;56704;54.242;12.442;2022-09-09T05:20:26;13.98;93.60
69503;SHT31;56704;54.242;12.442;2022-09-09T05:22:55;13.98;93.55
69503;SHT31;56704;54.242;12.442;2022-09-09T05:25:22;14.00;93.50
69503;SHT31;56704;54.242;12.442;2022-09-09T05:27:49;14.00;93.36
69503;SHT31;56704;54.242;12.442;2022-09-09T05:30:16;14.00;93.27
69503;SHT31;56704;54.242;12.442;2022-09-09T05:32:44;14.03;93.38
69503;SHT31;56704;54.242;12.442;2022-09-09T05:35:20;14.02;93.41
69503;SHT31;56704;54.242;12.442;2022-09-09T05:38:45;14.03;93.32
69503;SHT31;56704;54.242;12.442;2022-09-09T05:41:37;14.09;93.37
69503;SHT31;56704;54.242;12.442;2022-09-09T05:44:07;14.07;93.38
69503;SHT31;56704;54.242;12.442;2022-09-09T05:46:34;14.07;93.08
69503;SHT31;56704;54.242;12.442;2022-09-09T05:49:02;14.07;92.89
69503;SHT31;56704;54.242;12.442;2022-09-09T06:00:03;14.17;93.18
69503;SHT31;56704;54.242;12.442;2022-09-09T06:02:29;14.19;93.19
69503;SHT31;56704;54.242;12.442;2022-09-09T06:04:58;14.19;93.15
69503;SHT31;56704;54.242;12.442;2022-09-09T06:07:24;14.20;92.86
69503;SHT31;56704;54.242;12.442;2022-09-09T06:09:51;14.24;92.93
69503;SHT31;56704;54.242;12.442;2022-09-09T06:12:18;14.24;92.79
69503;SHT31;56704;54.242;12.442;2022-09-09T06:14:46;14.29;92.81
69503;SHT31;56704;54.242;12.442;2022-09-09T06:17:14;14.29;92.53
69503;SHT31;56704;54.242;12.442;2022-09-09T06:19:42;14.31;92.49
69503;SHT31;56704;54.242;12.442;2022-09-09T06:46:54;14.78;92.37
69503;SHT31;56704;54.242;12.442;2022-09-09T06:49:41;14.79;91.97
69503;SHT31;56704;54.242;12.442;2022-09-09T06:52:08;14.79;92.13
69503;SHT31;56704;54.242;12.442;2022-09-09T06:54:34;14.88;92.01
69503;SHT31;56704;54.242;12.442;2022-09-09T06:57:02;14.84;91.54
69503;SHT31;56704;54.242;12.442;2022-09-09T06:59:29;14.89;91.59
69503;SHT31;56704;54.242;12.442;2022-09-09T07:01:57;14.92;91.79
69503;SHT31;56704;54.242;12.442;2022-09-09T07:04:23;14.93;91.47
69503;SHT31;56704;54.242;12.442;2022-09-09T07:06:50;14.99;91.51
69503;SHT31;56704;54.242;12.442;2022-09-09T07:09:17;15.00;90.90
69503;SHT31;56704;54.242;12.442;2022-09-09T07:11:45;15.10;91.40
69503;SHT31;56704;54.242;12.442;2022-09-09T07:14:13;15.12;91.06
69503;SHT31;56704;54.242;12.442;2022-09-09T07:16:41;15.16;91.04
69503;SHT31;56704;54.242;12.442;2022-09-09T07:19:09;15.15;90.40
69503;SHT31;56704;54.242;12.442;2022-09-09T07:21:36;15.18;90.46
69503;SHT31;56704;54.242;12.442;2022-09-09T07:24:03;15.26;90.67
69503;SHT31;56704;54.242;12.442;2022-09-09T07:26:33;15.32;90.28
69503;SHT31;56704;54.242;12.442;2022-09-09T07:28:59;15.38;90.15
69503;SHT31;56704;54.242;12.442;2022-09-09T07:31:27;15.36;89.72
69503;SHT31;56704;54.242;12.442;2022-09-09T07:33:55;15.46;90.08
69503;SHT31;56704;54.242;12.442;2022-09-09T07:36:29;15.42;89.22
69503;SHT31;56704;54.242;12.442;2022-09-09T07:39:16;15.46;90.03
69503;SHT31;56704;54.242;12.442;2022-09-09T07:42:08;15.46;89.66
69503;SHT31;56704;54.242;12.442;2022-09-09T07:44:43;15.44;89.63
69503;SHT31;56704;54.242;12.442;2022-09-09T07:47:09;15.44;89.33
69503;SHT31;56704;54.242;12.442;2022-09-09T07:49:42;15.53;89.70
69503;SHT31;56704;54.242;12.442;2022-09-09T07:52:33;15.61;89.47
69503;SHT31;56704;54.242;12.442;2022-09-09T07:55:09;15.66;89.46
69503;SHT31;56704;54.242;12.442;2022-09-09T07:57:35;15.67;89.37
69503;SHT31;56704;54.242;12.442;2022-09-09T08:00:03;15.73;88.86
69503;SHT31;56704;54.242;12.442;2022-09-09T08:02:29;15.84;89.46
69503;SHT31;56704;54.242;12.442;2022-09-09T08:04:56;15.74;88.00
69503;SHT31;56704;54.242;12.442;2022-09-09T08:07:24;15.71;88.45
69503;SHT31;56704;54.242;12.442;2022-09-09T08:09:51;15.70;87.91
69503;SHT31;56704;54.242;12.442;2022-09-09T08:12:19;15.76;89.41
69503;SHT31;56704;54.242;12.442;2022-09-09T08:14:45;15.73;88.31
69503;SHT31;56704;54.242;12.442;2022-09-09T08:17:13;15.84;89.28
69503;SHT31;56704;54.242;12.442;2022-09-09T08:19:40;15.84;88.08
69503;SHT31;56704;54.242;12.442;2022-09-09T08:22:06;15.91;89.32
69503;SHT31;56704;54.242;12.442;2022-09-09T08:24:35;15.87;88.21
69503;SHT31;56704;54.242;12.442;2022-09-09T08:27:01;15.84;87.82
69503;SHT31;56704;54.242;12.442;2022-09-09T08:29:28;15.87;88.33
69503;SHT31;56704;54.242;12.442;2022-09-09T08:31:56;15.91;88.59
69503;SHT31;56704;54.242;12.442;2022-09-09T08:34:24;15.98;88.22
69503;SHT31;56704;54.242;12.442;2022-09-09T08:36:52;16.07;88.37
69503;SHT31;56704;54.242;12.442;2022-09-09T08:39:20;16.07;87.79
69503;SHT31;56704;54.242;12.442;2022-09-09T08:42:13;15.96;87.39
69503;SHT31;56704;54.242;12.442;2022-09-09T08:44:53;15.93;88.17
69503;SHT31;56704;54.242;12.442;2022-09-09T08:47:29;15.87;88.58
69503;SHT31;56704;54.242;12.442;2022-09-09T08:50:17;15.76;87.75
69503;SHT31;56704;54.242;12.442;2022-09-09T08:52:52;15.74;87.78
69503;SHT31;56704;54.242;12.442;2022-09-09T08:55:25;15.87;88.91
69503;SHT31;56704;54.242;12.442;2022-09-09T08:57:58;16.01;88.98
69503;SHT31;56704;54.242;12.442;2022-09-09T09:00:33;16.12;88.39
69503;SHT31;56704;54.242;12.442;2022-09-09T09:03:07;16.19;88.22
69503;SHT31;56704;54.242;12.442;2022-09-09T09:05:39;16.17;87.08
69503;SHT31;56704;54.242;12.442;2022-09-09T09:08:17;16.24;87.81
69503;SHT31;56704;54.242;12.442;2022-09-09T09:10:48;16.33;88.21
69503;SHT31;56704;54.242;12.442;2022-09-09T09:13:19;16.42;87.32
69503;SHT31;56704;54.242;12.442;2022-09-09T09:15:52;16.51;86.75
69503;SHT31;56704;54.242;12.442;2022-09-09T09:18:20;16.45;87.20
69503;SHT31;56704;54.242;12.442;2022-09-09T09:20:55;16.38;86.44
69503;SHT31;56704;54.242;12.442;2022-09-09T09:23:38;16.39;87.43
69503;SHT31;56704;54.242;12.442;2022-09-09T09:26:07;16.60;88.00
69503;SHT31;56704;54.242;12.442;2022-09-09T09:28:42;16.79;86.52
69503;SHT31;56704;54.242;12.442;2022-09-09T09:31:10;16.96;85.75
69503;SHT31;56704;54.242;12.442;2022-09-09T09:33:45;17.00;85.25
69503;SHT31;56704;54.242;12.442;2022-09-09T09:36:14;17.17;84.04
69503;SHT31;56704;54.242;12.442;2022-09-09T09:38:52;17.42;85.20
69503;SHT31;56704;54.242;12.442;2022-09-09T09:41:29;17.51;84.32
69503;SHT31;56704;54.242;12.442;2022-09-09T09:43:57;17.79;84.32
69503;SHT31;56704;54.242;12.442;2022-09-09T09:46:24;17.86;81.55
69503;SHT31;56704;54.242;12.442;2022-09-09T09:48:58;18.03;83.52
69503;SHT31;56704;54.242;12.442;2022-09-09T09:51:26;17.92;81.68
69503;SHT31;56704;54.242;12.442;2022-09-09T09:53:53;18.09;81.55
69503;SHT31;56704;54.242;12.442;2022-09-09T09:56:27;18.03;83.04
69503;SHT31;56704;54.242;12.442;2022-09-09T09:58:56;17.93;82.83
69503;SHT31;56704;54.242;12.442;2022-09-09T10:01:25;17.99;83.23
69503;SHT31;56704;54.242;12.442;2022-09-09T10:03:54;18.05;83.20
69503;SHT31;56704;54.242;12.442;2022-09-09T10:06:30;18.13;83.60
69503;SHT31;56704;54.242;12.442;2022-09-09T10:08:57;18.03;82.37
69503;SHT31;56704;54.242;12.442;2022-09-09T10:11:41;17.98;83.26
69503;SHT31;56704;54.242;12.442;2022-09-09T10:14:18;18.00;81.69
69503;SHT31;56704;54.242;12.442;2022-09-09T10:16:58;18.23;82.42
69503;SHT31;56704;54.242;12.442;2022-09-09T10:19:30;18.58;82.68
69503;SHT31;56704;54.242;12.442;2022-09-09T10:22:07;18.75;82.86
69503;SHT31;56704;54.242;12.442;2022-09-09T10:27:50;18.46;81.47
69503;SHT31;56704;54.242;12.442;2022-09-09T10:30:22;18.74;81.86
69503;SHT31;56704;54.242;12.442;2022-09-09T10:32:56;18.72;79.50
69503;SHT31;56704;54.242;12.442;2022-09-09T10:35:30;18.75;79.55
69503;SHT31;56704;54.242;12.442;2022-09-09T10:38:14;19.09;80.19
69503;SHT31;56704;54.242;12.442;2022-09-09T10:40:49;19.50;80.85
69503;SHT31;56704;54.242;12.442;2022-09-09T10:43:26;19.32;77.78
69503;SHT31;56704;54.242;12.442;2022-09-09T10:46:04;19.60;79.86
69503;SHT31;56704;54.242;12.442;2022-09-09T10:48:43;19.65;79.15
69503;SHT31;56704;54.242;12.442;2022-09-09T10:51:23;19.38;78.11
69503;SHT31;56704;54.242;12.442;2022-09-09T10:54:03;19.73;78.79
69503;SHT31;56704;54.242;12.442;2022-09-09T10:56:32;19.74;74.96
69503;SHT31;56704;54.242;12.442;2022-09-09T10:59:02;19.38;76.64
69503;SHT31;56704;54.242;12.442;2022-09-09T11:01:37;19.23;77.64
69503;SHT31;56704;54.242;12.442;2022-09-09T11:04:11;19.70;78.64
69503;SHT31;56704;54.242;12.442;2022-09-09T11:06:42;19.84;76.09
69503;SHT31;56704;54.242;12.442;2022-09-09T11:09:15;20.11;76.13
69503;SHT31;56704;54.242;12.442;2022-09-09T11:11:48;20.24;76.31
69503;SHT31;56704;54.242;12.442;2022-09-09T11:14:21;20.07;75.49
69503;SHT31;56704;54.242;12.442;2022-09-09T11:16:53;20.03;75.55
69503;SHT31;56704;54.242;12.442;2022-09-09T11:19:25;20.34;75.53
69503;SHT31;56704;54.242;12.442;2022-09-09T11:21:55;20.79;76.06
69503;SHT31;56704;54.242;12.442;2022-09-09T11:24:27;20.39;71.96
69503;SHT31;56704;54.242;12.442;2022-09-09T11:26:59;20.38;73.16
69503;SHT31;56704;54.242;12.442;2022-09-09T11:30:04;20.58;72.70
69503;SHT31;56704;54.242;12.442;2022-09-09T11:32:49;20.72;75.01
69503;SHT31;56704;54.242;12.442;2022-09-09T11:35:30;20.80;73.27
69503;SHT31;56704;54.242;12.442;2022-09-09T11:38:16;20.79;73.43
69503;SHT31;56704;54.242;12.442;2022-09-09T11:40:45;20.69;73.30
69503;SHT31;56704;54.242;12.442;2022-09-09T11:43:13;21.13;73.35
69503;SHT31;56704;54.242;12.442;2022-09-09T11:45:42;21.61;73.00
69503;SHT31;56704;54.242;12.442;2022-09-09T11:48:26;21.51;70.42
69503;SHT31;56704;54.242;12.442;2022-09-09T11:50:58;21.64;72.72
69503;SHT31;56704;54.242;12.442;2022-09-09T11:53:25;21.67;70.41
69503;SHT31;56704;54.242;12.442;2022-09-09T11:56:08;21.51;71.43
69503;SHT31;56704;54.242;12.442;2022-09-09T11:58:44;21.67;72.03
69503;SHT31;56704;54.242;12.442;2022-09-09T12:01:24;21.77;71.76
69503;SHT31;56704;54.242;12.442;2022-09-09T12:04:00;21.50;71.25
69503;SHT31;56704;54.242;12.442;2022-09-09T12:06:33;21.10;71.52
69503;SHT31;56704;54.242;12.442;2022-09-09T12:09:13;21.06;72.23
69503;SHT31;56704;54.242;12.442;2022-09-09T12:11:42;20.83;73.37
69503;SHT31;56704;54.242;12.442;2022-09-09T12:14:19;21.14;73.94
69503;SHT31;56704;54.242;12.442;2022-09-09T12:16:46;21.47;74.66
69503;SHT31;56704;54.242;12.442;2022-09-09T12:19:16;20.90;71.25
69503;SHT31;56704;54.242;12.442;2022-09-09T12:21:50;20.92;72.68
69503;SHT31;56704;54.242;12.442;2022-09-09T12:24:22;20.96;72.80
69503;SHT31;56704;54.242;12.442;2022-09-09T12:26:56;20.99;71.17
69503;SHT31;56704;54.242;12.442;2022-09-09T12:29:28;21.13;73.27
69503;SHT31;56704;54.242;12.442;2022-09-09T12:32:01;20.89;69.66
69503;SHT31;56704;54.242;12.442;2022-09-09T12:34:40;20.79;72.38
69503;SHT31;56704;54.242;12.442;2022-09-09T12:37:15;20.83;72.95
69503;SHT31;56704;54.242;12.442;2022-09-09T12:39:45;20.73;72.82
69503;SHT31;56704;54.242;12.442;2022-09-09T12:42:17;20.48;72.89
69503;SHT31;56704;54.242;12.442;2022-09-09T12:44:54;20.52;72.59
69503;SHT31;56704;54.242;12.442;2022-09-09T12:47:25;20.95;73.30
69503;SHT31;56704;54.242;12.442;2022-09-09T12:49:53;21.22;72.75
69503;SHT31;56704;54.242;12.442;2022-09-09T12:52:25;21.33;72.59
69503;SHT31;56704;54.242;12.442;2022-09-09T12:54:55;21.59;71.98
69503;SHT31;56704;54.242;12.442;2022-09-09T12:57:24;21.78;71.89
69503;SHT31;56704;54.242;12.442;2022-09-09T12:59:51;21.44;69.65
69503;SHT31;56704;54.242;12.442;2022-09-09T13:02:20;21.44;70.59
69503;SHT31;56704;54.242;12.442;2022-09-09T13:04:47;21.38;69.80
69503;SHT31;56704;54.242;12.442;2022-09-09T13:07:17;21.26;71.85
69503;SHT31;56704;54.242;12.442;2022-09-09T13:09:45;21.14;71.04
69503;SHT31;56704;54.242;12.442;2022-09-09T13:12:15;21.02;71.51
69503;SHT31;56704;54.242;12.442;2022-09-09T13:14:44;20.89;72.10
69503;SHT31;56704;54.242;12.442;2022-09-09T13:17:19;20.90;72.01
69503;SHT31;56704;54.242;12.442;2022-09-09T13:19:46;20.99;72.53
69503;SHT31;56704;54.242;12.442;2022-09-09T13:22:21;20.86;71.00
69503;SHT31;56704;54.242;12.442;2022-09-09T13:24:47;20.80;71.14
69503;SHT31;56704;54.242;12.442;2022-09-09T13:27:26;20.87;71.75
69503;SHT31;56704;54.242;12.442;2022-09-09T13:29:55;20.92;72.93
69503;SHT31;56704;54.242;12.442;2022-09-09T13:32:22;21.14;72.67
69503;SHT31;56704;54.242;12.442;2022-09-09T13:34:53;20.93;72.06
69503;SHT31;56704;54.242;12.442;2022-09-09T13:37:23;20.85;70.75
69503;SHT31;56704;54.242;12.442;2022-09-09T13:39:53;20.87;71.29
69503;SHT31;56704;54.242;12.442;2022-09-09T13:42:25;20.85;70.66
69503;SHT31;56704;54.242;12.442;2022-09-09T13:44:52;20.73;71.88
69503;SHT31;56704;54.242;12.442;2022-09-09T13:47:21;20.73;71.92
69503;SHT31;56704;54.242;12.442;2022-09-09T13:49:49;20.71;70.88
69503;SHT31;56704;54.242;12.442;2022-09-09T13:52:17;20.85;72.15
69503;SHT31;56704;54.242;12.442;2022-09-09T13:54:49;20.83;72.41
69503;SHT31;56704;54.242;12.442;2022-09-09T13:57:18;20.62;70.99
69503;SHT31;56704;54.242;12.442;2022-09-09T13:59:45;20.62;72.74
69503;SHT31;56704;54.242;12.442;2022-09-09T14:02:12;20.61;71.98
69503;SHT31;56704;54.242;12.442;2022-09-09T14:04:39;20.56;72.09
69503;SHT31;56704;54.242;12.442;2022-09-09T14:07:09;20.59;72.87
69503;SHT31;56704;54.242;12.442;2022-09-09T14:09:37;20.55;73.25
69503;SHT31;56704;54.242;12.442;2022-09-09T14:12:05;20.55;73.21
69503;SHT31;56704;54.242;12.442;2022-09-09T14:14:32;20.46;72.98
69503;SHT31;56704;54.242;12.442;2022-09-09T14:16:59;20.35;72.03
69503;SHT31;56704;54.242;12.442;2022-09-09T14:19:25;20.27;73.23
69503;SHT31;56704;54.242;12.442;2022-09-09T14:21:52;20.22;72.79
69503;SHT31;56704;54.242;12.442;2022-09-09T14:24:19;20.27;73.20
69503;SHT31;56704;54.242;12.442;2022-09-09T14:26:46;20.24;72.80
69503;SHT31;56704;54.242;12.442;2022-09-09T14:29:14;20.18;73.07
69503;SHT31;56704;54.242;12.442;2022-09-09T14:31:41;20.20;72.71
69503;SHT31;56704;54.242;12.442;2022-09-09T14:34:07;20.15;72.90
69503;SHT31;56704;54.242;12.442;2022-09-09T14:36:35;20.11;72.63
69503;SHT31;56704;54.242;12.442;2022-09-09T14:39:01;20.07;73.88
69503;SHT31;56704;54.242;12.442;2022-09-09T14:41:28;20.03;73.67
69503;SHT31;56704;54.242;12.442;2022-09-09T14:43:54;19.96;73.34
69503;SHT31;56704;54.242;12.442;2022-09-09T14:46:22;19.96;74.33
69503;SHT31;56704;54.242;12.442;2022-09-09T14:48:49;19.94;74.58
69503;SHT31;56704;54.242;12.442;2022-09-09T14:51:17;19.88;73.90
69503;SHT31;56704;54.242;12.442;2022-09-09T14:53:45;19.88;75.05
69503;SHT31;56704;54.242;12.442;2022-09-09T14:56:14;19.88;74.53
69503;SHT31;56704;54.242;12.442;2022-09-09T14:58:41;19.86;74.04
69503;SHT31;56704;54.242;12.442;2022-09-09T15:01:09;19.88;74.67
69503;SHT31;56704;54.242;12.442;2022-09-09T15:03:38;19.87;75.36
69503;SHT31;56704;54.242;12.442;2022-09-09T15:06:06;19.87;74.42
69503;SHT31;56704;54.242;12.442;2022-09-09T15:08:34;19.90;74.89
69503;SHT31;56704;54.242;12.442;2022-09-09T15:11:00;19.87;74.81
69503;SHT31;56704;54.242;12.442;2022-09-09T15:13:27;19.81;74.95
69503;SHT31;56704;54.242;12.442;2022-09-09T15:15:53;19.71;75.19
69503;SHT31;56704;54.242;12.442;2022-09-09T15:18:20;19.60;75.45
69503;SHT31;56704;54.242;12.442;2022-09-09T15:20:48;19.56;75.75
69503;SHT31;56704;54.242;12.442;2022-09-09T15:23:14;19.59;75.92
69503;SHT31;56704;54.242;12.442;2022-09-09T15:25:50;19.62;76.32
69503;SHT31;56704;54.242;12.442;2022-09-09T15:28:17;19.60;76.09
69503;SHT31;56704;54.242;12.442;2022-09-09T15:30:45;19.60;76.48
69503;SHT31;56704;54.242;12.442;2022-09-09T15:33:13;19.60;76.29
69503;SHT31;56704;54.242;12.442;2022-09-09T15:35:39;19.56;76.17
69503;SHT31;56704;54.242;12.442;2022-09-09T15:38:07;19.55;76.54
69503;SHT31;56704;54.242;12.442;2022-09-09T15:40:34;19.57;77.21
69503;SHT31;56704;54.242;12.442;2022-09-09T15:43:00;19.55;77.02
69503;SHT31;56704;54.242;12.442;2022-09-09T15:45:27;19.59;77.54
69503;SHT31;56704;54.242;12.442;2022-09-09T15:47:56;19.59;77.40
69503;SHT31;56704;54.242;12.442;2022-09-09T15:50:22;19.52;76.39
69503;SHT31;56704;54.242;12.442;2022-09-09T15:52:49;19.50;77.02
69503;SHT31;56704;54.242;12.442;2022-09-09T15:55:19;19.49;77.37
69503;SHT31;56704;54.242;12.442;2022-09-09T15:57:45;19.50;77.70
69503;SHT31;56704;54.242;12.442;2022-09-09T16:00:13;19.52;78.07
69503;SHT31;56704;54.242;12.442;2022-09-09T16:02:39;19.50;77.75
69503;SHT31;56704;54.242;12.442;2022-09-09T16:05:06;19.55;78.06
69503;SHT31;56704;54.242;12.442;2022-09-09T16:07:33;19.55;77.85
69503;SHT31;56704;54.242;12.442;2022-09-09T16:10:01;19.56;77.94
69503;SHT31;56704;54.242;12.442;2022-09-09T16:12:29;19.62;78.04
69503;SHT31;56704;54.242;12.442;2022-09-09T16:14:55;19.65;77.87
69503;SHT31;56704;54.242;12.442;2022-09-09T16:17:22;19.66;77.52